createdAt,value
2023-04-27T00:02:08.184Z,97671.13
2023-04-27T00:04:35.983Z,97671.97
2023-04-27T00:07:03.831Z,97668.44
2023-04-27T00:09:31.378Z,97673.97
2023-04-27T00:11:58.901Z,97671.69
2023-04-27T00:14:28.399Z,97662.56
2023-04-27T00:16:57.255Z,97664.63
2023-04-27T00:19:24.746Z,97662.06
2023-04-27T00:21:52.324Z,97663.50
2023-04-27T00:24:19.792Z,97659.84
2023-04-27T00:26:47.262Z,97668.44
2023-04-27T00:29:14.951Z,97663.03
2023-04-27T00:31:42.767Z,97665.84
2023-04-27T00:34:11.674Z,97666.78
2023-04-27T00:36:39.882Z,97656.69
2023-04-27T00:39:07.385Z,97654.50
2023-04-27T00:41:38.103Z,97661.41
2023-04-27T00:44:06.063Z,97662.06
2023-04-27T00:46:34.314Z,97667.78
2023-04-27T00:49:02.049Z,97660.34
2023-04-27T00:51:32.118Z,97667.88
2023-04-27T00:54:01.036Z,97672.94
2023-04-27T00:56:28.536Z,97675.22
2023-04-27T00:58:56.270Z,97669.94
2023-04-27T01:01:24.510Z,97672.19
2023-04-27T01:03:52.221Z,97673.03
2023-04-27T01:06:19.942Z,97673.53
2023-04-27T01:08:48.865Z,97675.59
2023-04-27T01:11:16.424Z,97679.50
2023-04-27T01:13:43.923Z,97678.66
2023-04-27T01:16:11.508Z,97677.69
2023-04-27T01:18:40.712Z,97683.66
2023-04-27T01:21:08.356Z,97676.84
2023-04-27T01:23:37.248Z,97678.41
2023-04-27T01:26:04.796Z,97673.56
2023-04-27T01:28:32.351Z,97670.06
2023-04-27T01:31:01.304Z,97676.69
2023-04-27T01:33:28.809Z,97670.91
2023-04-27T01:35:56.301Z,97674.66
2023-04-27T01:38:24.269Z,97668.38
2023-04-27T01:40:55.154Z,97671.78
2023-04-27T01:43:22.670Z,97676.06
2023-04-27T01:45:50.179Z,97677.84
2023-04-27T01:48:17.674Z,97673.22
2023-04-27T01:50:45.258Z,97669.53
2023-04-27T01:53:12.840Z,97676.25
2023-04-27T01:55:40.510Z,97666.53
2023-04-27T01:58:09.308Z,97675.97
2023-04-27T02:00:36.861Z,97671.75
2023-04-27T02:03:04.541Z,97680.16
2023-04-27T02:05:32.137Z,97681.69
2023-04-27T02:07:59.687Z,97678.00
2023-04-27T02:10:27.231Z,97679.16
2023-04-27T02:12:57.468Z,97684.31
2023-04-27T02:15:26.541Z,97685.59
2023-04-27T02:17:54.632Z,97677.31
2023-04-27T02:20:22.931Z,97674.34
2023-04-27T02:22:50.477Z,97684.69
2023-04-27T02:25:18.316Z,97677.97
2023-04-27T02:27:45.903Z,97687.84
2023-04-27T02:30:15.331Z,97687.91
2023-04-27T02:32:44.900Z,97690.06
2023-04-27T02:35:12.483Z,97691.09
2023-04-27T02:37:39.973Z,97692.53
2023-04-27T02:40:09.544Z,97687.00
2023-04-27T02:42:38.719Z,97683.34
2023-04-27T02:45:08.117Z,97690.81
2023-04-27T02:47:37.410Z,97689.06
2023-04-27T02:50:07.485Z,97685.59
2023-04-27T02:52:36.289Z,97688.31
2023-04-27T02:55:03.985Z,97682.44
2023-04-27T02:57:31.763Z,97689.81
2023-04-27T03:00:00.787Z,97686.34
2023-04-27T03:02:28.398Z,97682.53
2023-04-27T03:04:56.184Z,97693.22
2023-04-27T03:07:26.182Z,97695.41
2023-04-27T03:09:53.735Z,97695.94
2023-04-27T03:12:22.675Z,97694.75
2023-04-27T03:14:50.157Z,97699.94
2023-04-27T03:17:18.691Z,97702.34
2023-04-27T03:19:48.992Z,97694.97
2023-04-27T03:22:16.461Z,97703.09
2023-04-27T03:24:45.330Z,97703.53
2023-04-27T03:27:12.905Z,97707.00
2023-04-27T03:29:40.398Z,97709.06
2023-04-27T03:32:08.046Z,97707.13
2023-04-27T03:34:35.636Z,97713.59
2023-04-27T03:37:03.140Z,97723.09
2023-04-27T03:39:30.777Z,97710.66
2023-04-27T03:41:59.584Z,97720.69
2023-04-27T03:44:27.170Z,97715.94
2023-04-27T03:46:54.874Z,97716.63
2023-04-27T03:49:22.982Z,97716.31
2023-04-27T03:51:51.026Z,97722.88
2023-04-27T03:54:18.573Z,97717.28
2023-04-27T03:56:46.784Z,97721.16
2023-04-27T03:59:16.153Z,97721.84
2023-04-27T04:01:49.812Z,97721.75
2023-04-27T04:04:17.447Z,97726.72
2023-04-27T04:06:45.200Z,97727.00
2023-04-27T04:09:13.623Z,97733.13
2023-04-27T04:11:41.493Z,97723.78
2023-04-27T04:14:12.280Z,97736.59
2023-04-27T04:16:42.472Z,97738.34
2023-04-27T04:19:10.024Z,97742.88
2023-04-27T04:21:37.940Z,97731.94
2023-04-27T04:24:05.906Z,97741.72
2023-04-27T04:26:34.202Z,97742.88
2023-04-27T04:29:02.006Z,97741.97
2023-04-27T04:31:29.804Z,97743.78
2023-04-27T04:33:58.725Z,97754.50
2023-04-27T04:36:26.580Z,97749.44
2023-04-27T04:38:57.215Z,97748.13
2023-04-27T04:41:26.348Z,97758.03
2023-04-27T04:43:54.493Z,97751.59
2023-04-27T04:46:22.352Z,97756.38
2023-04-27T04:48:52.724Z,97749.06
2023-04-27T04:51:23.635Z,97751.22
2023-04-27T04:53:51.121Z,97753.88
2023-04-27T04:56:18.665Z,97758.88
2023-04-27T04:58:46.313Z,97752.06
2023-04-27T05:01:13.816Z,97755.94
2023-04-27T05:03:42.684Z,97754.44
2023-04-27T05:06:10.286Z,97765.91
2023-04-27T05:08:39.185Z,97758.88
2023-04-27T05:11:06.666Z,97757.44
2023-04-27T05:13:35.533Z,97759.25
2023-04-27T05:16:05.107Z,97752.84
2023-04-27T05:18:32.693Z,97757.06
2023-04-27T05:21:00.411Z,97755.00
2023-04-27T05:23:27.980Z,97746.00
2023-04-27T05:25:56.859Z,97749.47
2023-04-27T05:28:24.338Z,97751.16
2023-04-27T05:30:51.851Z,97740.81
2023-04-27T05:33:19.366Z,97748.06
2023-04-27T05:35:46.860Z,97747.47
2023-04-27T05:38:17.412Z,97750.72
2023-04-27T05:40:44.987Z,97760.50
2023-04-27T05:43:13.780Z,97746.69
2023-04-27T05:45:41.813Z,97756.06
2023-04-27T05:48:09.348Z,97758.19
2023-04-27T05:50:36.849Z,97752.75
2023-04-27T05:53:05.631Z,97753.00
2023-04-27T05:55:33.092Z,97750.41
2023-04-27T05:58:08.536Z,97754.47
2023-04-27T06:00:38.327Z,97753.84
2023-04-27T06:03:07.234Z,97755.41
2023-04-27T06:05:35.307Z,97756.41
2023-04-27T06:08:03.084Z,97754.13
2023-04-27T06:10:30.714Z,97758.09
2023-04-27T06:12:58.223Z,97750.59
2023-04-27T06:15:25.931Z,97760.38
2023-04-27T06:17:54.827Z,97761.97
2023-04-27T06:20:22.919Z,97757.09
2023-04-27T06:22:50.581Z,97751.66
2023-04-27T06:25:18.094Z,97752.22
2023-04-27T06:27:45.667Z,97755.25
2023-04-27T06:30:13.917Z,97765.84
2023-04-27T06:32:41.464Z,97771.00
2023-04-27T06:35:11.044Z,97765.84
2023-04-27T06:37:39.061Z,97763.47
2023-04-27T06:40:08.041Z,97765.63
2023-04-27T06:42:35.738Z,97757.53
2023-04-27T06:45:04.554Z,97762.19
2023-04-27T06:47:32.071Z,97761.72
2023-04-27T06:49:59.850Z,97765.38
2023-04-27T06:52:28.780Z,97774.31
2023-04-27T06:54:56.265Z,97762.38
2023-04-27T06:57:23.746Z,97769.16
2023-04-27T06:59:52.305Z,97764.50
2023-04-27T07:02:19.924Z,97771.13
2023-04-27T07:04:47.847Z,97772.44
2023-04-27T07:07:15.398Z,97764.09
2023-04-27T07:09:44.405Z,97762.22
2023-04-27T07:12:11.948Z,97764.84
2023-04-27T07:14:39.445Z,97762.47
2023-04-27T07:17:06.984Z,97768.88
2023-04-27T07:19:34.459Z,97769.59
2023-04-27T07:22:01.943Z,97761.88
2023-04-27T07:24:29.403Z,97772.09
2023-04-27T07:26:59.393Z,97767.63
2023-04-27T07:29:28.302Z,97769.22
2023-04-27T07:31:57.353Z,97757.31
2023-04-27T07:34:24.925Z,97760.03
2023-04-27T07:36:54.195Z,97773.16
2023-04-27T07:39:22.310Z,97765.91
2023-04-27T07:41:49.897Z,97765.94
2023-04-27T07:44:19.429Z,97768.69
2023-04-27T07:46:48.927Z,97766.44
2023-04-27T07:49:16.741Z,97771.25
2023-04-27T07:51:44.372Z,97761.53
2023-04-27T07:54:11.954Z,97762.00
2023-04-27T07:56:41.592Z,97758.50
2023-04-27T07:59:09.108Z,97755.34
2023-04-27T08:01:37.982Z,97759.75
2023-04-27T08:04:08.786Z,97765.72
2023-04-27T08:06:37.036Z,97760.16
2023-04-27T08:09:05.198Z,97767.19
2023-04-27T08:11:32.902Z,97761.44
2023-04-27T08:14:01.451Z,97764.28
2023-04-27T08:16:28.992Z,97772.22
2023-04-27T08:18:59.269Z,97758.91
2023-04-27T08:21:28.532Z,97755.59
2023-04-27T08:23:56.525Z,97755.41
2023-04-27T08:26:26.276Z,97761.56
2023-04-27T08:28:53.980Z,97760.94
2023-04-27T08:31:22.117Z,97768.19
2023-04-27T08:33:49.721Z,97758.28
2023-04-27T08:36:18.559Z,97751.34
2023-04-27T08:38:46.488Z,97752.81
2023-04-27T08:41:21.962Z,97754.59
2023-04-27T08:43:50.814Z,97744.16
2023-04-27T08:46:21.938Z,97753.41
2023-04-27T08:48:51.115Z,97756.75
2023-04-27T08:51:20.864Z,97748.47
2023-04-27T08:53:50.371Z,97759.34
2023-04-27T08:56:18.123Z,97761.50
2023-04-27T08:58:45.963Z,97761.38
2023-04-27T09:01:13.537Z,97759.47
2023-04-27T09:03:41.236Z,97766.25
2023-04-27T09:06:09.600Z,97761.63
2023-04-27T09:08:45.816Z,97764.19
2023-04-27T09:11:13.464Z,97752.66
2023-04-27T09:13:44.995Z,97754.78
2023-04-27T09:16:13.963Z,97750.22
2023-04-27T09:18:43.621Z,97754.94
2023-04-27T09:21:11.248Z,97753.03
2023-04-27T09:23:40.639Z,97752.63
2023-04-27T09:26:09.513Z,97748.66
2023-04-27T09:28:39.670Z,97750.88
2023-04-27T09:31:09.135Z,97754.03
2023-04-27T09:33:37.049Z,97745.94
2023-04-27T09:36:06.535Z,97741.59
2023-04-27T09:38:34.836Z,97736.09
2023-04-27T09:41:02.822Z,97731.19
2023-04-27T09:43:31.804Z,97729.16
2023-04-27T09:45:59.499Z,97721.53
2023-04-27T09:48:27.553Z,97717.81
2023-04-27T09:50:55.120Z,97724.59
2023-04-27T09:53:27.623Z,97719.63
2023-04-27T09:56:04.186Z,97714.53
2023-04-27T09:58:46.298Z,97720.31
2023-04-27T10:01:19.645Z,97715.91
2023-04-27T10:03:56.686Z,97706.59
2023-04-27T10:06:58.125Z,97705.84
2023-04-27T10:09:26.473Z,97709.84
2023-04-27T10:11:55.256Z,97703.91
2023-04-27T10:14:26.046Z,97707.25
2023-04-27T10:16:55.641Z,97711.72
2023-04-27T10:19:24.386Z,97703.59
2023-04-27T10:21:57.914Z,97700.75
2023-04-27T10:24:37.926Z,97701.34
2023-04-27T10:27:06.909Z,97701.00
2023-04-27T10:29:40.241Z,97701.63
2023-04-27T10:32:08.934Z,97693.97
2023-04-27T10:34:37.396Z,97697.28
2023-04-27T10:37:09.186Z,97695.38
2023-04-27T10:39:47.550Z,97689.38
2023-04-27T10:42:16.052Z,97683.84
2023-04-27T10:44:55.869Z,97701.72
2023-04-27T10:47:24.346Z,97686.81
2023-04-27T10:49:53.679Z,97689.28
2023-04-27T10:52:21.134Z,97690.38
2023-04-27T10:54:48.800Z,97685.63
2023-04-27T10:57:16.424Z,97686.50
2023-04-27T10:59:52.838Z,97685.91
2023-04-27T11:02:27.483Z,97686.72
2023-04-27T11:04:55.410Z,97682.25
2023-04-27T11:07:27.683Z,97695.63
2023-04-27T11:09:55.358Z,97696.81
2023-04-27T11:12:24.087Z,97695.13
2023-04-27T11:14:58.400Z,97691.25
2023-04-27T11:17:30.069Z,97695.53
2023-04-27T11:19:57.630Z,97695.00
2023-04-27T11:22:25.534Z,97696.56
2023-04-27T11:24:53.668Z,97693.47
2023-04-27T11:27:22.290Z,97687.56
2023-04-27T11:29:49.941Z,97683.88
2023-04-27T11:32:22.565Z,97688.75
2023-04-27T11:34:50.787Z,97695.53
2023-04-27T11:37:23.745Z,97695.13
2023-04-27T11:39:51.687Z,97701.44
2023-04-27T11:42:21.891Z,97699.97
2023-04-27T11:44:56.616Z,97694.03
2023-04-27T11:47:27.698Z,97682.56
2023-04-27T11:49:56.542Z,97680.00
2023-04-27T11:52:24.380Z,97689.88
2023-04-27T11:54:53.440Z,97692.75
2023-04-27T11:57:26.117Z,97687.16
2023-04-27T11:59:53.781Z,97693.88
2023-04-27T12:02:22.037Z,97697.00
2023-04-27T12:04:51.603Z,97686.50
2023-04-27T12:07:19.718Z,97685.69
2023-04-27T12:09:47.600Z,97686.78
2023-04-27T12:12:18.174Z,97684.91
2023-04-27T12:14:45.872Z,97683.84
2023-04-27T12:17:13.666Z,97685.25
2023-04-27T12:19:41.229Z,97695.50
2023-04-27T12:22:10.158Z,97685.09
2023-04-27T12:24:38.042Z,97687.88
2023-04-27T12:27:05.622Z,97687.00
2023-04-27T12:29:33.259Z,97676.63
2023-04-27T12:32:01.073Z,97686.59
2023-04-27T12:34:29.218Z,97684.00
2023-04-27T12:36:56.916Z,97684.13
2023-04-27T12:39:25.870Z,97687.66
2023-04-27T12:41:54.100Z,97681.41
2023-04-27T12:44:22.647Z,97679.16
2023-04-27T12:46:50.629Z,97682.22
2023-04-27T12:49:18.642Z,97675.44
2023-04-27T12:51:47.796Z,97677.63
2023-04-27T12:54:15.700Z,97679.78
2023-04-27T12:56:45.008Z,97683.09
2023-04-27T12:59:12.612Z,97683.63
2023-04-27T13:01:40.288Z,97678.75
2023-04-27T13:04:09.168Z,97665.00
2023-04-27T13:06:36.911Z,97663.75
2023-04-27T13:09:05.389Z,97666.00
2023-04-27T13:11:32.984Z,97668.00
2023-04-27T13:14:01.993Z,97669.41
2023-04-27T13:16:29.689Z,97679.06
2023-04-27T13:18:57.258Z,97672.63
2023-04-27T13:21:24.897Z,97676.03
2023-04-27T13:23:54.821Z,97675.75
2023-04-27T13:26:22.473Z,97678.59
2023-04-27T13:28:50.998Z,97674.84
2023-04-27T13:31:19.980Z,97666.97
2023-04-27T13:33:47.485Z,97671.34
2023-04-27T13:36:15.106Z,97671.41
2023-04-27T13:38:42.726Z,97674.91
2023-04-27T13:41:10.309Z,97666.13
2023-04-27T13:43:37.915Z,97658.34
2023-04-27T13:46:05.616Z,97671.25
2023-04-27T13:48:34.453Z,97666.19
2023-04-27T13:51:02.256Z,97667.38
2023-04-27T13:53:29.847Z,97663.34
2023-04-27T13:55:58.180Z,97660.56
2023-04-27T13:58:26.401Z,97657.13
2023-04-27T14:00:54.613Z,97661.78
2023-04-27T14:03:22.801Z,97659.63
2023-04-27T14:05:52.087Z,97663.84
2023-04-27T14:08:19.760Z,97658.59
2023-04-27T14:10:47.586Z,97658.16
2023-04-27T14:13:15.091Z,97647.91
2023-04-27T14:15:42.639Z,97642.16
2023-04-27T14:18:10.710Z,97649.31
2023-04-27T14:20:40.217Z,97642.16
2023-04-27T14:23:09.744Z,97644.72
2023-04-27T14:25:38.645Z,97649.75
2023-04-27T14:28:07.039Z,97647.63
2023-04-27T14:30:35.364Z,97649.28
2023-04-27T14:33:03.278Z,97645.53
2023-04-27T14:35:31.103Z,97642.03
2023-04-27T14:38:02.238Z,97639.47
2023-04-27T14:40:31.544Z,97649.56
2023-04-27T14:42:59.682Z,97645.72
2023-04-27T14:45:33.442Z,97640.72
2023-04-27T14:48:04.676Z,97637.34
2023-04-27T14:50:32.677Z,97641.19
2023-04-27T14:53:00.151Z,97643.41
2023-04-27T14:55:27.644Z,97642.63
2023-04-27T14:57:56.466Z,97646.22
2023-04-27T15:00:24.023Z,97652.31
2023-04-27T15:02:51.676Z,97644.50
2023-04-27T15:05:19.233Z,97646.94
2023-04-27T15:07:46.966Z,97645.81
2023-04-27T15:10:14.439Z,97648.09
2023-04-27T15:12:41.911Z,97653.34
2023-04-27T15:15:12.776Z,97640.88
2023-04-27T15:17:40.386Z,97644.03
2023-04-27T15:20:08.957Z,97648.81
2023-04-27T15:22:36.462Z,97644.28
2023-04-27T15:25:04.199Z,97651.13
2023-04-27T15:27:32.666Z,97647.19
2023-04-27T15:30:03.792Z,97648.03
2023-04-27T15:32:33.239Z,97645.34
2023-04-27T15:35:01.257Z,97646.81
2023-04-27T15:37:29.727Z,97645.41
2023-04-27T15:39:57.648Z,97643.19
2023-04-27T15:42:25.330Z,97645.53
2023-04-27T15:44:52.823Z,97633.16
2023-04-27T15:47:20.323Z,97632.72
2023-04-27T15:49:57.011Z,97626.94
2023-04-27T15:52:27.045Z,97627.78
2023-04-27T15:54:55.887Z,97625.56
2023-04-27T15:57:23.357Z,97629.91
2023-04-27T15:59:50.856Z,97625.41
2023-04-27T16:02:18.752Z,97626.66
2023-04-27T16:04:46.307Z,97624.19
2023-04-27T16:07:15.147Z,97617.00
2023-04-27T16:09:43.370Z,97620.06
2023-04-27T16:12:10.885Z,97620.88
2023-04-27T16:14:38.874Z,97615.63
2023-04-27T16:17:06.708Z,97613.09
2023-04-27T16:19:34.176Z,97613.63
2023-04-27T16:22:04.034Z,97615.03
2023-04-27T16:24:32.903Z,97607.66
2023-04-27T16:27:00.428Z,97602.47
2023-04-27T16:29:27.923Z,97601.06
2023-04-27T16:31:55.444Z,97597.13
2023-04-27T16:34:22.963Z,97601.25
2023-04-27T16:36:50.797Z,97595.91
2023-04-27T16:39:19.192Z,97597.97
2023-04-27T16:41:48.552Z,97593.22
2023-04-27T16:44:16.573Z,97599.81
2023-04-27T16:46:44.127Z,97588.88
2023-04-27T16:49:11.797Z,97598.56
2023-04-27T16:51:39.386Z,97599.88
2023-04-27T16:54:06.917Z,97596.50
2023-04-27T16:56:36.079Z,97599.53
2023-04-27T16:59:05.198Z,97600.97
2023-04-27T17:01:32.989Z,97599.72
2023-04-27T17:04:02.301Z,97606.41
2023-04-27T17:06:30.051Z,97605.19
2023-04-27T17:08:58.233Z,97608.50
2023-04-27T17:11:26.376Z,97607.75
2023-04-27T17:13:53.920Z,97604.47
2023-04-27T17:16:23.369Z,97611.69
2023-04-27T17:18:51.055Z,97616.66
2023-04-27T17:21:19.337Z,97613.78
2023-04-27T17:23:47.476Z,97619.13
2023-04-27T17:26:15.965Z,97613.56
2023-04-27T17:28:43.477Z,97618.31
2023-04-27T17:31:11.031Z,97614.41
2023-04-27T17:33:40.102Z,97619.16
2023-04-27T17:36:07.955Z,97619.34
2023-04-27T17:38:35.513Z,97632.94
2023-04-27T17:41:03.001Z,97623.25
2023-04-27T17:43:30.778Z,97619.13
2023-04-27T17:45:58.262Z,97626.09
2023-04-27T17:48:25.778Z,97627.56
2023-04-27T17:50:54.647Z,97623.44
2023-04-27T17:53:22.179Z,97622.78
2023-04-27T17:55:49.688Z,97624.06
2023-04-27T17:58:17.192Z,97619.91
2023-04-27T18:00:45.211Z,97626.50
2023-04-27T18:03:13.242Z,97635.94
2023-04-27T18:05:41.020Z,97631.56
2023-04-27T18:08:09.967Z,97635.63
2023-04-27T18:10:37.445Z,97631.31
2023-04-27T18:13:04.939Z,97637.03
2023-04-27T18:15:32.474Z,97637.41
2023-04-27T18:18:00.107Z,97635.97
2023-04-27T18:20:28.067Z,97624.44
2023-04-27T18:22:55.694Z,97633.09
2023-04-27T18:25:24.625Z,97633.22
2023-04-27T18:27:55.324Z,97643.25
2023-04-27T18:30:23.490Z,97644.72
2023-04-27T18:32:51.005Z,97648.41
2023-04-27T18:35:18.614Z,97649.19
2023-04-27T18:37:48.304Z,97651.69
2023-04-27T18:40:17.168Z,97657.03
2023-04-27T18:42:45.959Z,97655.75
2023-04-27T18:45:13.513Z,97660.28
2023-04-27T18:47:41.028Z,97653.28
2023-04-27T18:50:09.532Z,97658.59
2023-04-27T18:52:37.016Z,97654.63
2023-04-27T18:55:05.362Z,97666.69
2023-04-27T18:57:33.060Z,97666.47
2023-04-27T19:00:01.969Z,97668.13
2023-04-27T19:02:29.724Z,97674.50
2023-04-27T19:05:11.134Z,97681.03
2023-04-27T19:07:40.313Z,97673.03
2023-04-27T19:10:08.934Z,97668.25
2023-04-27T19:12:36.501Z,97670.25
2023-04-27T19:15:06.181Z,97666.44
2023-04-27T19:17:34.135Z,97666.06
2023-04-27T19:20:01.768Z,97665.88
2023-04-27T19:22:34.088Z,97667.28
2023-04-27T19:25:01.792Z,97665.56
2023-04-27T19:27:29.377Z,97668.25
2023-04-27T19:29:58.638Z,97665.53
2023-04-27T19:32:28.336Z,97667.56
2023-04-27T19:34:56.819Z,97667.28
2023-04-27T19:37:24.675Z,97668.31
2023-04-27T19:39:52.200Z,97670.16
2023-04-27T19:42:19.705Z,97667.44
2023-04-27T19:44:47.297Z,97667.63
2023-04-27T19:47:14.820Z,97667.81
2023-04-27T19:49:43.662Z,97661.22
2023-04-27T19:52:11.247Z,97656.63
2023-04-27T19:54:38.937Z,97656.19
2023-04-27T19:57:06.598Z,97653.03
2023-04-27T19:59:34.180Z,97647.75
2023-04-27T20:02:01.853Z,97652.34
2023-04-27T20:04:29.760Z,97652.97
2023-04-27T20:06:58.716Z,97649.28
2023-04-27T20:09:26.306Z,97652.22
2023-04-27T20:11:54.903Z,97640.53
2023-04-27T20:14:22.431Z,97647.38
2023-04-27T20:16:50.019Z,97648.47
2023-04-27T20:19:19.269Z,97647.00
2023-04-27T20:21:46.906Z,97635.75
2023-04-27T20:24:16.313Z,97633.78
2023-04-27T20:26:44.150Z,97634.03
2023-04-27T20:29:11.696Z,97635.22
2023-04-27T20:31:39.232Z,97628.28
2023-04-27T20:34:06.738Z,97631.69
2023-04-27T20:36:34.234Z,97627.22
2023-04-27T20:39:05.383Z,97627.66
2023-04-27T20:41:34.644Z,97631.22
2023-04-27T20:44:02.314Z,97631.44
2023-04-27T20:46:30.567Z,97619.13
2023-04-27T20:48:58.089Z,97628.78
2023-04-27T20:51:26.252Z,97615.63
2023-04-27T20:53:53.769Z,97619.47
2023-04-27T20:56:21.227Z,97619.03
2023-04-27T20:58:50.044Z,97616.94
2023-04-27T21:01:17.868Z,97614.91
2023-04-27T21:03:45.952Z,97618.41
2023-04-27T21:06:13.597Z,97620.25
2023-04-27T21:08:41.818Z,97606.28
2023-04-27T21:11:09.376Z,97612.34
2023-04-27T21:13:37.087Z,97605.34
2023-04-27T21:16:06.568Z,97605.00
2023-04-27T21:18:34.106Z,97608.84
2023-04-27T21:21:01.648Z,97602.50
2023-04-27T21:23:29.267Z,97604.56
2023-04-27T21:25:56.789Z,97606.66
2023-04-27T21:28:24.258Z,97605.34
2023-04-27T21:30:51.792Z,97610.44
2023-04-27T21:33:20.590Z,97611.47
2023-04-27T21:35:48.092Z,97622.22
2023-04-27T21:38:15.640Z,97609.06
2023-04-27T21:40:43.186Z,97618.97
2023-04-27T21:43:10.673Z,97609.63
2023-04-27T21:45:38.195Z,97612.03
2023-04-27T21:48:06.166Z,97618.47
2023-04-27T21:50:35.118Z,97607.81
2023-04-27T21:53:02.576Z,97614.63
2023-04-27T21:55:30.062Z,97608.72
2023-04-27T21:57:57.578Z,97609.66
2023-04-27T22:00:25.551Z,97608.22
2023-04-27T22:02:53.213Z,97601.84
2023-04-27T22:05:21.512Z,97601.66
2023-04-27T22:07:51.430Z,97601.38
2023-04-27T22:10:18.985Z,97592.56
2023-04-27T22:12:46.888Z,97593.69
2023-04-27T22:15:14.376Z,97598.44
2023-04-27T22:17:41.886Z,97596.53
2023-04-27T22:20:12.626Z,97595.69
2023-04-27T22:22:40.137Z,97600.09
2023-04-27T22:25:10.030Z,97606.50
2023-04-27T22:27:44.839Z,97606.00
2023-04-27T22:30:14.366Z,97604.75
2023-04-27T22:32:42.363Z,97598.88
2023-04-27T22:35:24.690Z,97599.78
2023-04-27T22:37:53.645Z,97603.75
2023-04-27T22:40:22.657Z,97603.69
2023-04-27T22:42:50.139Z,97596.03
2023-04-27T22:45:18.041Z,97592.53
2023-04-27T22:47:46.006Z,97586.41
2023-04-27T22:50:14.061Z,97582.63
2023-04-27T22:52:43.038Z,97581.09
2023-04-27T22:55:11.044Z,97573.81
2023-04-27T22:57:40.115Z,97577.03
2023-04-27T23:00:11.309Z,97574.19
2023-04-27T23:02:39.531Z,97574.44
2023-04-27T23:05:08.004Z,97574.28
2023-04-27T23:07:36.013Z,97571.91
2023-04-27T23:10:04.587Z,97570.16
2023-04-27T23:12:32.557Z,97563.25
2023-04-27T23:15:01.374Z,97570.88
2023-04-27T23:17:31.181Z,97560.91
2023-04-27T23:19:59.197Z,97565.41
2023-04-27T23:22:27.462Z,97561.09
2023-04-27T23:24:55.371Z,97568.56
2023-04-27T23:27:24.618Z,97568.22
2023-04-27T23:29:52.618Z,97564.47
2023-04-27T23:32:21.698Z,97565.97
2023-04-27T23:34:49.395Z,97563.66
2023-04-27T23:37:17.173Z,97551.81
2023-04-27T23:39:44.656Z,97547.75
2023-04-27T23:42:12.150Z,97552.44
2023-04-27T23:44:39.658Z,97549.56
2023-04-27T23:47:07.283Z,97543.50
2023-04-27T23:49:36.339Z,97547.94
2023-04-27T23:52:03.819Z,97537.69
2023-04-27T23:54:31.545Z,97537.56
2023-04-27T23:56:59.045Z,97537.97
2023-04-27T23:59:26.553Z,97530.94
